createdAt,value
2019-04-25T00:00:01.984Z,99900.45
2019-04-25T00:02:36.784Z,99906.70
2019-04-25T00:05:06.256Z,99919.30
2019-04-25T00:07:33.038Z,99928.31
2019-04-25T00:10:01.501Z,99942.26
2019-04-25T00:12:28.915Z,99952.61
2019-04-25T00:14:57.581Z,99951.31
2019-04-25T00:17:25.351Z,99960.49
2019-04-25T00:19:52.853Z,99963.28
2019-04-25T00:22:25.777Z,99974.34
2019-04-25T00:25:12.905Z,99981.27
2019-04-25T00:27:32.062Z,99985.51
2019-04-25T00:29:58.786Z,99978.92
2019-04-25T00:32:25.682Z,99978.55
2019-04-25T00:34:52.855Z,99978.98
2019-04-25T00:37:20.040Z,99961.34
2019-04-25T00:39:47.112Z,99950.28
2019-04-25T00:42:13.901Z,99946.46
2019-04-25T00:44:43.505Z,99944.31
2019-04-25T00:47:11.781Z,99952.11
2019-04-25T00:49:38.495Z,99953.64
2019-04-25T00:52:05.322Z,99946.30
2019-04-25T00:54:31.992Z,99957.64
2019-04-25T00:56:58.672Z,99955.18
2019-04-25T00:59:44.305Z,99961.53
2019-04-25T01:02:21.536Z,99971.74
2019-04-25T01:04:49.233Z,99969.48
2019-04-25T01:07:15.924Z,99968.39
2019-04-25T01:09:43.473Z,99965.66
2019-04-25T01:12:15.203Z,99956.80
2019-04-25T01:14:42.146Z,99937.20
2019-04-25T01:17:08.941Z,99938.88
2019-04-25T01:19:35.632Z,99942.38
2019-04-25T01:22:03.769Z,99917.45
2019-04-25T01:24:30.763Z,99911.25
2019-04-25T01:26:57.553Z,99919.81
2019-04-25T01:29:24.337Z,99911.91
2019-04-25T01:31:52.137Z,99899.18
2019-04-25T01:34:26.143Z,99900.80
2019-04-25T01:37:21.478Z,99894.10
2019-04-25T01:39:57.278Z,99899.47
2019-04-25T01:42:43.891Z,99906.30
2019-04-25T01:45:11.881Z,99917.81
2019-04-25T01:47:38.640Z,99924.76
2019-04-25T01:50:05.926Z,99937.69
2019-04-25T01:52:33.485Z,99962.84
2019-04-25T01:55:00.354Z,99981.14
2019-04-25T01:57:27.126Z,99983.06
2019-04-25T01:59:55.116Z,99976.51
2019-04-25T02:02:24.170Z,99995.58
2019-04-25T02:04:51.436Z,99999.92
2019-04-25T02:07:18.353Z,100004.62
2019-04-25T02:09:45.027Z,100011.81
2019-04-25T02:12:33.659Z,100012.34
2019-04-25T02:15:00.629Z,99999.57
2019-04-25T02:17:27.626Z,100020.02
2019-04-25T02:19:55.444Z,100020.02
2019-04-25T02:22:24.334Z,100027.64
2019-04-25T02:24:51.833Z,100043.41
2019-04-25T02:27:19.391Z,100042.67
2019-04-25T02:29:46.170Z,100038.35
2019-04-25T02:32:14.597Z,100039.92
2019-04-25T02:34:41.550Z,100041.64
2019-04-25T02:37:09.311Z,100039.53
2019-04-25T02:39:37.471Z,100045.73
2019-04-25T02:42:07.952Z,100043.76
2019-04-25T02:44:35.791Z,100045.59
2019-04-25T02:47:14.678Z,100050.50
2019-04-25T02:49:55.921Z,100047.67
2019-04-25T02:52:34.435Z,100051.16
2019-04-25T02:55:02.204Z,100050.95
2019-04-25T02:57:30.440Z,100057.22
2019-04-25T02:59:58.407Z,100059.77
2019-04-25T03:02:25.339Z,100052.70
2019-04-25T03:04:54.341Z,100055.82
2019-04-25T03:07:20.891Z,100059.00
2019-04-25T03:09:48.809Z,100059.51
2019-04-25T03:12:29.483Z,100057.36
2019-04-25T03:14:44.736Z,100057.36
2019-04-25T03:17:14.015Z,100056.42
2019-04-25T03:20:07.941Z,100056.70
2019-04-25T03:22:34.730Z,100058.63
2019-04-25T03:25:02.202Z,100065.22
2019-04-25T03:27:30.269Z,100067.08
2019-04-25T03:29:57.037Z,100063.17
2019-04-25T03:32:25.814Z,100053.53
2019-04-25T03:34:53.150Z,100060.54
2019-04-25T03:37:21.311Z,100058.56
2019-04-25T03:39:47.989Z,100057.07
2019-04-25T03:42:14.697Z,100064.22
2019-04-25T03:44:41.361Z,100061.66
2019-04-25T03:47:08.659Z,100068.59
2019-04-25T03:49:35.958Z,100079.61
2019-04-25T03:52:04.974Z,100072.29
2019-04-25T03:54:31.563Z,100078.97
2019-04-25T03:56:58.265Z,100078.56
2019-04-25T03:59:24.971Z,100084.75
2019-04-25T04:01:51.698Z,100084.20
2019-04-25T04:04:18.596Z,100081.33
2019-04-25T04:06:46.570Z,100085.71
2019-04-25T04:09:14.251Z,100091.39
2019-04-25T04:11:43.409Z,100100.18
2019-04-25T04:14:10.338Z,100108.72
2019-04-25T04:16:40.478Z,100107.62
2019-04-25T04:19:07.205Z,100108.56
2019-04-25T04:21:53.116Z,100111.84
2019-04-25T04:24:30.322Z,100114.57
2019-04-25T04:27:12.202Z,100114.57
2019-04-25T04:29:39.105Z,100128.23
2019-04-25T04:32:06.846Z,100135.30
2019-04-25T04:34:33.951Z,100141.89
2019-04-25T04:37:03.705Z,100151.25
2019-04-25T04:39:30.843Z,100154.47
2019-04-25T04:41:57.512Z,100155.86
2019-04-25T04:44:24.268Z,100157.45
2019-04-25T04:46:52.019Z,100158.85
2019-04-25T04:49:18.759Z,100158.38
2019-04-25T04:51:45.447Z,100167.02
2019-04-25T04:54:13.554Z,100166.41
2019-04-25T04:56:41.321Z,100171.55
2019-04-25T04:59:07.994Z,100175.34
2019-04-25T05:01:37.321Z,100181.45
2019-04-25T05:04:14.932Z,100184.91
2019-04-25T05:06:51.818Z,100184.73
2019-04-25T05:09:24.896Z,100190.02
2019-04-25T05:11:54.032Z,100191.02
2019-04-25T05:14:20.892Z,100185.23
2019-04-25T05:16:49.537Z,100191.33
2019-04-25T05:19:16.822Z,100204.98
2019-04-25T05:21:45.639Z,100215.38
2019-04-25T05:24:13.363Z,100223.05
2019-04-25T05:26:40.920Z,100233.50
2019-04-25T05:29:07.578Z,100232.00
2019-04-25T05:31:43.918Z,100240.28
2019-04-25T05:34:11.352Z,100245.72
2019-04-25T05:36:38.133Z,100247.65
2019-04-25T05:39:09.242Z,100251.95
2019-04-25T05:41:58.138Z,100260.14
2019-04-25T05:44:27.328Z,100266.09
2019-04-25T05:46:54.111Z,100273.70
2019-04-25T05:49:21.315Z,100272.50
2019-04-25T05:51:48.233Z,100286.73
2019-04-25T05:54:14.883Z,100295.00
2019-04-25T05:56:41.672Z,100294.20
2019-04-25T05:59:08.344Z,100295.24
2019-04-25T06:01:35.788Z,100297.48
2019-04-25T06:04:05.152Z,100307.23
2019-04-25T06:06:36.080Z,100298.43
2019-04-25T06:09:24.038Z,100302.88
2019-04-25T06:12:14.330Z,100306.99
2019-04-25T06:14:41.030Z,100315.19
2019-04-25T06:17:11.491Z,100322.25
2019-04-25T06:19:46.665Z,100325.69
2019-04-25T06:22:19.697Z,100327.61
2019-04-25T06:24:52.322Z,100325.84
2019-04-25T06:27:28.404Z,100330.42
2019-04-25T06:30:05.963Z,100339.59
2019-04-25T06:32:35.068Z,100340.41
2019-04-25T06:35:01.544Z,100348.72
2019-04-25T06:37:29.014Z,100341.00
2019-04-25T06:39:55.847Z,100340.74
2019-04-25T06:42:24.583Z,100339.32
2019-04-25T06:45:21.501Z,100338.23
2019-04-25T06:48:17.331Z,100345.00
2019-04-25T06:50:44.230Z,100342.24
2019-04-25T06:53:10.913Z,100352.06
2019-04-25T06:55:37.703Z,100351.12
2019-04-25T06:58:11.672Z,100352.63
2019-04-25T07:00:40.811Z,100350.80
2019-04-25T07:03:02.381Z,100355.45
2019-04-25T07:05:36.699Z,100358.42
2019-04-25T07:07:57.840Z,100363.47
2019-04-25T07:10:29.450Z,100366.05
2019-04-25T07:12:57.363Z,100374.09
2019-04-25T07:15:24.945Z,100370.10
2019-04-25T07:17:54.048Z,100371.58
2019-04-25T07:20:21.277Z,100372.28
2019-04-25T07:22:48.171Z,100372.44
2019-04-25T07:25:15.245Z,100363.59
2019-04-25T07:28:07.373Z,100359.27
2019-04-25T07:30:51.690Z,100363.74
2019-04-25T07:33:20.421Z,100361.81
2019-04-25T07:35:47.288Z,100356.81
2019-04-25T07:38:14.178Z,100355.09
2019-04-25T07:40:41.030Z,100361.40
2019-04-25T07:43:07.806Z,100363.41
2019-04-25T07:45:36.387Z,100360.18
2019-04-25T07:48:04.103Z,100366.88
2019-04-25T07:50:32.224Z,100363.35
2019-04-25T07:53:00.509Z,100368.53
2019-04-25T07:55:27.548Z,100368.79
2019-04-25T07:57:55.390Z,100370.07
2019-04-25T08:00:23.991Z,100364.06
2019-04-25T08:02:50.871Z,100364.02
2019-04-25T08:05:17.770Z,100363.55
2019-04-25T08:07:44.558Z,100359.77
2019-04-25T08:10:15.041Z,100363.44
2019-04-25T08:12:43.987Z,100367.98
2019-04-25T08:15:18.123Z,100367.05
2019-04-25T08:18:04.090Z,100365.78
2019-04-25T08:20:31.157Z,100356.72
2019-04-25T08:22:59.702Z,100360.64
2019-04-25T08:25:26.609Z,100361.87
2019-04-25T08:27:53.516Z,100367.22
2019-04-25T08:30:21.976Z,100368.38
2019-04-25T08:32:48.758Z,100378.72
2019-04-25T08:35:16.182Z,100370.98
2019-04-25T08:37:44.122Z,100366.41
2019-04-25T08:40:11.322Z,100365.47
2019-04-25T08:42:37.999Z,100359.98
2019-04-25T08:45:05.322Z,100364.92
2019-04-25T08:47:34.397Z,100365.19
2019-04-25T08:50:26.410Z,100363.36
2019-04-25T08:52:44.211Z,100364.45
2019-04-25T08:55:31.508Z,100365.27
2019-04-25T08:58:28.181Z,100364.92
2019-04-25T09:01:05.960Z,100370.98
2019-04-25T09:03:40.131Z,100369.89
2019-04-25T09:06:08.863Z,100367.17
2019-04-25T09:08:37.315Z,100368.36
2019-04-25T09:11:04.311Z,100366.14
2019-04-25T09:13:31.463Z,100381.43
2019-04-25T09:15:58.146Z,100383.08
2019-04-25T09:18:26.100Z,100383.25
2019-04-25T09:20:53.985Z,100390.94
2019-04-25T09:23:20.878Z,100389.65
2019-04-25T09:25:47.535Z,100386.16
2019-04-25T09:28:14.395Z,100383.41
2019-04-25T09:30:41.262Z,100379.25
2019-04-25T09:33:08.233Z,100370.89
2019-04-25T09:35:36.114Z,100373.31
2019-04-25T09:38:03.451Z,100376.75
2019-04-25T09:40:30.126Z,100373.52
2019-04-25T09:42:56.829Z,100375.48
2019-04-25T09:45:43.921Z,100382.95
2019-04-25T09:48:20.838Z,100384.89
2019-04-25T09:50:50.832Z,100382.13
2019-04-25T09:53:23.213Z,100387.18
2019-04-25T09:56:05.113Z,100387.25
2019-04-25T09:58:38.226Z,100385.41
2019-04-25T10:01:10.186Z,100394.08
2019-04-25T10:03:37.268Z,100388.48
2019-04-25T10:06:04.598Z,100391.53
2019-04-25T10:08:31.390Z,100386.79
2019-04-25T10:10:58.097Z,100379.26
2019-04-25T10:13:25.247Z,100391.20
2019-04-25T10:16:00.677Z,100374.19
2019-04-25T10:18:27.955Z,100372.28
2019-04-25T10:20:54.747Z,100360.03
2019-04-25T10:23:21.592Z,100375.58
2019-04-25T10:25:48.832Z,100387.21
2019-04-25T10:28:15.654Z,100375.48
2019-04-25T10:30:42.970Z,100380.04
2019-04-25T10:33:09.819Z,100379.91
2019-04-25T10:35:46.707Z,100380.41
2019-04-25T10:38:05.444Z,100376.14
2019-04-25T10:40:33.817Z,100378.20
2019-04-25T10:43:00.906Z,100381.29
2019-04-25T10:45:27.718Z,100384.17
2019-04-25T10:47:55.245Z,100384.91
2019-04-25T10:50:23.841Z,100385.49
2019-04-25T10:52:51.068Z,100384.92
2019-04-25T10:55:17.757Z,100377.08
2019-04-25T10:57:45.531Z,100376.88
2019-04-25T11:00:24.116Z,100372.65
2019-04-25T11:02:51.833Z,100372.65
2019-04-25T11:05:19.154Z,100367.67
2019-04-25T11:07:46.587Z,100366.16
2019-04-25T11:10:14.349Z,100377.21
2019-04-25T11:12:44.243Z,100374.61
2019-04-25T11:15:11.314Z,100378.49
2019-04-25T11:17:38.000Z,100379.63
2019-04-25T11:20:05.523Z,100376.94
2019-04-25T11:22:34.198Z,100377.96
2019-04-25T11:25:01.247Z,100372.80
2019-04-25T11:27:28.224Z,100381.04
2019-04-25T11:30:08.563Z,100377.42
2019-04-25T11:32:26.938Z,100375.44
2019-04-25T11:34:54.896Z,100371.70
2019-04-25T11:37:29.538Z,100382.72
2019-04-25T11:40:04.281Z,100382.59
2019-04-25T11:42:31.416Z,100370.61
2019-04-25T11:44:58.486Z,100372.38
2019-04-25T11:47:25.149Z,100373.45
2019-04-25T11:49:51.981Z,100366.88
2019-04-25T11:52:27.439Z,100362.25
2019-04-25T11:54:48.132Z,100370.80
2019-04-25T11:57:14.880Z,100356.43
2019-04-25T11:59:44.599Z,100366.30
2019-04-25T12:02:13.319Z,100360.73
2019-04-25T12:04:40.179Z,100372.36
2019-04-25T12:07:09.532Z,100371.02
2019-04-25T12:09:37.336Z,100372.48
2019-04-25T12:12:05.761Z,100370.95
2019-04-25T12:14:34.130Z,100370.05
2019-04-25T12:17:00.923Z,100366.53
2019-04-25T12:19:35.805Z,100364.55
2019-04-25T12:21:58.242Z,100385.60
2019-04-25T12:24:28.342Z,100387.95
2019-04-25T12:26:55.989Z,100380.00
2019-04-25T12:29:24.423Z,100385.38
2019-04-25T12:31:51.189Z,100379.83
2019-04-25T12:34:18.512Z,100386.30
2019-04-25T12:36:45.314Z,100386.13
2019-04-25T12:39:14.015Z,100387.58
2019-04-25T12:41:41.016Z,100387.39
2019-04-25T12:44:39.361Z,100388.18
2019-04-25T12:47:11.196Z,100390.78
2019-04-25T12:49:39.075Z,100425.77
2019-04-25T12:52:06.129Z,100389.05
2019-04-25T12:54:33.954Z,100392.13
2019-04-25T12:57:00.813Z,100382.09
2019-04-25T12:59:27.491Z,100385.03
2019-04-25T13:01:55.661Z,100389.93
2019-04-25T13:04:22.766Z,100401.05
2019-04-25T13:06:50.528Z,100382.73
2019-04-25T13:09:17.551Z,100380.09
2019-04-25T13:11:44.335Z,100385.52
2019-04-25T13:14:11.100Z,100390.28
2019-04-25T13:16:38.911Z,100382.59
2019-04-25T13:19:16.435Z,100379.84
2019-04-25T13:21:35.352Z,100378.23
2019-04-25T13:24:03.077Z,100373.25
2019-04-25T13:26:34.446Z,100390.17
2019-04-25T13:29:21.237Z,100374.36
2019-04-25T13:32:07.540Z,100367.25
2019-04-25T13:34:40.265Z,100377.28
2019-04-25T13:37:14.025Z,100375.23
2019-04-25T13:39:41.634Z,100376.95
2019-04-25T13:42:08.461Z,100373.13
2019-04-25T13:44:36.153Z,100380.86
2019-04-25T13:47:04.133Z,100377.05
2019-04-25T13:49:31.625Z,100368.91
2019-04-25T13:51:58.497Z,100362.08
2019-04-25T13:54:25.169Z,100359.95
2019-04-25T13:56:53.284Z,100362.55
2019-04-25T13:59:21.696Z,100357.73
2019-04-25T14:01:48.514Z,100361.09
2019-04-25T14:04:16.477Z,100359.61
2019-04-25T14:06:43.255Z,100359.84
2019-04-25T14:09:14.864Z,100359.69
2019-04-25T14:11:43.967Z,100362.37
2019-04-25T14:14:10.818Z,100356.71
2019-04-25T14:17:07.076Z,100344.52
2019-04-25T14:19:45.731Z,100346.61
2019-04-25T14:22:12.568Z,100343.45
2019-04-25T14:24:39.904Z,100344.25
2019-04-25T14:27:06.579Z,100341.13
2019-04-25T14:29:33.296Z,100331.77
2019-04-25T14:32:00.528Z,100334.88
2019-04-25T14:34:27.831Z,100329.11
2019-04-25T14:36:54.928Z,100332.67
2019-04-25T14:39:23.710Z,100337.27
2019-04-25T14:41:50.917Z,100334.55
2019-04-25T14:44:17.741Z,100337.17
2019-04-25T14:46:44.505Z,100332.56
2019-04-25T14:49:11.412Z,100329.11
2019-04-25T14:51:38.092Z,100324.30
2019-04-25T14:54:07.685Z,100324.64
2019-04-25T14:56:52.692Z,100323.13
2019-04-25T14:59:22.021Z,100319.72
2019-04-25T15:01:48.346Z,100327.41
2019-04-25T15:04:15.043Z,100329.11
2019-04-25T15:06:42.094Z,100321.87
2019-04-25T15:09:10.717Z,100326.16
2019-04-25T15:11:37.854Z,100320.59
2019-04-25T15:14:04.529Z,100313.80
2019-04-25T15:16:31.218Z,100309.48
2019-04-25T15:18:58.042Z,100309.52
2019-04-25T15:21:25.197Z,100324.92
2019-04-25T15:24:00.058Z,100318.08
2019-04-25T15:26:21.485Z,100315.46
2019-04-25T15:28:48.164Z,100315.80
2019-04-25T15:31:15.334Z,100310.27
2019-04-25T15:33:42.026Z,100317.20
2019-04-25T15:36:14.829Z,100316.74
2019-04-25T15:38:49.584Z,100314.62
2019-04-25T15:41:25.115Z,100321.47
2019-04-25T15:44:10.296Z,100311.59
2019-04-25T15:46:38.476Z,100308.15
2019-04-25T15:49:05.269Z,100307.69
2019-04-25T15:51:32.716Z,100309.42
2019-04-25T15:54:00.651Z,100299.19
2019-04-25T15:56:27.490Z,100305.22
2019-04-25T15:58:55.394Z,100296.69
2019-04-25T16:01:23.364Z,100292.41
2019-04-25T16:03:52.445Z,100300.10
2019-04-25T16:06:19.145Z,100283.86
2019-04-25T16:08:45.873Z,100282.94
2019-04-25T16:11:12.731Z,100285.07
2019-04-25T16:13:39.714Z,100284.69
2019-04-25T16:16:06.932Z,100284.25
2019-04-25T16:18:33.624Z,100285.56
2019-04-25T16:21:00.406Z,100285.97
2019-04-25T16:23:27.852Z,100284.70
2019-04-25T16:25:55.652Z,100285.53
2019-04-25T16:28:22.340Z,100288.53
2019-04-25T16:30:49.037Z,100287.70
2019-04-25T16:33:15.705Z,100276.98
2019-04-25T16:35:42.850Z,100272.27
2019-04-25T16:38:10.102Z,100279.95
2019-04-25T16:40:36.924Z,100270.13
2019-04-25T16:43:06.172Z,100269.30
2019-04-25T16:45:34.001Z,100267.58
2019-04-25T16:48:01.006Z,100266.66
2019-04-25T16:50:30.107Z,100262.31
2019-04-25T16:52:57.799Z,100264.02
2019-04-25T16:55:24.591Z,100258.52
2019-04-25T16:57:51.275Z,100259.79
2019-04-25T17:00:52.282Z,100257.20
2019-04-25T17:03:21.450Z,100255.89
2019-04-25T17:05:48.225Z,100254.95
2019-04-25T17:08:15.224Z,100260.48
2019-04-25T17:10:42.000Z,100255.26
2019-04-25T17:13:08.743Z,100257.37
2019-04-25T17:15:54.229Z,100260.73
2019-04-25T17:18:24.766Z,100262.43
2019-04-25T17:21:00.012Z,100259.76
2019-04-25T17:23:27.044Z,100263.17
2019-04-25T17:25:54.006Z,100258.01
2019-04-25T17:28:21.901Z,100262.67
2019-04-25T17:30:52.663Z,100264.41
2019-04-25T17:33:45.045Z,100272.03
2019-04-25T17:36:26.085Z,100269.82
2019-04-25T17:39:07.023Z,100276.19
2019-04-25T17:41:36.237Z,100276.95
2019-04-25T17:44:03.117Z,100272.27
2019-04-25T17:46:29.797Z,100269.59
2019-04-25T17:48:56.748Z,100267.89
2019-04-25T17:51:26.470Z,100268.28
2019-04-25T17:53:53.177Z,100275.09
2019-04-25T17:56:19.874Z,100271.63
2019-04-25T17:58:46.562Z,100271.20
2019-04-25T18:01:17.337Z,100276.31
2019-04-25T18:03:44.145Z,100269.41
2019-04-25T18:06:11.155Z,100270.19
2019-04-25T18:08:38.027Z,100275.76
2019-04-25T18:11:05.401Z,100277.78
2019-04-25T18:13:32.281Z,100280.30
2019-04-25T18:16:22.951Z,100278.14
2019-04-25T18:19:08.915Z,100281.89
2019-04-25T18:21:36.758Z,100277.20
2019-04-25T18:24:24.486Z,100277.17
2019-04-25T18:26:56.849Z,100276.59
2019-04-25T18:29:24.025Z,100274.84
2019-04-25T18:31:50.810Z,100276.52
2019-04-25T18:34:25.362Z,100280.19
2019-04-25T18:37:12.415Z,100273.67
2019-04-25T18:39:44.141Z,100278.78
2019-04-25T18:42:33.622Z,100276.52
2019-04-25T18:45:00.431Z,100265.79
2019-04-25T18:47:27.472Z,100272.94
2019-04-25T18:49:54.154Z,100278.04
2019-04-25T18:52:48.464Z,100274.59
2019-04-25T18:55:22.939Z,100280.92
2019-04-25T18:57:53.099Z,100285.83
2019-04-25T19:00:58.123Z,100286.20
2019-04-25T19:03:43.657Z,100288.31
2019-04-25T19:06:13.205Z,100287.79
2019-04-25T19:08:40.827Z,100296.00
2019-04-25T19:11:09.174Z,100293.00
2019-04-25T19:13:36.042Z,100291.67
2019-04-25T19:16:02.981Z,100292.11
2019-04-25T19:18:29.648Z,100286.47
2019-04-25T19:20:56.434Z,100288.17
2019-04-25T19:23:23.218Z,100284.61
2019-04-25T19:25:52.129Z,100284.55
2019-04-25T19:28:19.150Z,100282.36
2019-04-25T19:30:47.217Z,100281.04
2019-04-25T19:33:15.541Z,100275.75
2019-04-25T19:35:45.694Z,100270.13
2019-04-25T19:38:13.334Z,100273.21
2019-04-25T19:40:48.138Z,100264.42
2019-04-25T19:43:49.890Z,100270.30
2019-04-25T19:46:16.725Z,100267.69
2019-04-25T19:48:43.484Z,100266.00
2019-04-25T19:51:11.361Z,100266.77
2019-04-25T19:53:38.445Z,100273.16
2019-04-25T19:56:05.455Z,100266.12
2019-04-25T19:58:32.268Z,100270.23
2019-04-25T20:01:00.446Z,100259.44
2019-04-25T20:03:58.537Z,100260.85
2019-04-25T20:06:43.444Z,100258.79
2019-04-25T20:09:30.143Z,100254.13
2019-04-25T20:11:58.882Z,100259.88
2019-04-25T20:14:25.539Z,100261.86
2019-04-25T20:16:52.218Z,100261.42
2019-04-25T20:19:19.142Z,100260.36
2019-04-25T20:21:46.280Z,100255.27
2019-04-25T20:24:13.354Z,100260.92
2019-04-25T20:26:40.114Z,100252.79
2019-04-25T20:29:07.133Z,100246.28
2019-04-25T20:31:34.436Z,100253.37
2019-04-25T20:34:05.898Z,100243.69
2019-04-25T20:36:29.807Z,100243.74
2019-04-25T20:38:57.020Z,100250.13
2019-04-25T20:41:23.711Z,100240.56
2019-04-25T20:43:50.759Z,100241.70
2019-04-25T20:46:17.791Z,100238.95
2019-04-25T20:48:44.471Z,100236.27
2019-04-25T20:51:11.271Z,100238.59
2019-04-25T20:53:38.029Z,100241.83
2019-04-25T20:56:06.102Z,100240.30
2019-04-25T20:58:34.361Z,100234.84
2019-04-25T21:01:02.837Z,100234.60
2019-04-25T21:03:29.754Z,100237.66
2019-04-25T21:06:04.794Z,100238.00
2019-04-25T21:08:31.720Z,100227.84
2019-04-25T21:10:58.360Z,100229.39
2019-04-25T21:13:34.001Z,100231.66
2019-04-25T21:16:27.777Z,100229.30
2019-04-25T21:19:14.001Z,100227.52
2019-04-25T21:21:40.855Z,100225.14
2019-04-25T21:24:08.013Z,100218.48
2019-04-25T21:26:36.014Z,100221.03
2019-04-25T21:29:03.027Z,100219.06
2019-04-25T21:31:29.730Z,100218.48
2019-04-25T21:33:57.328Z,100223.21
2019-04-25T21:36:24.458Z,100218.81
2019-04-25T21:38:51.594Z,100216.80
2019-04-25T21:41:37.953Z,100216.78
2019-04-25T21:44:05.773Z,100214.66
2019-04-25T21:46:37.832Z,100221.11
2019-04-25T21:49:05.039Z,100221.34
2019-04-25T21:51:32.438Z,100215.12
2019-04-25T21:54:04.696Z,100222.38
2019-04-25T21:56:31.653Z,100218.13
2019-04-25T21:58:58.639Z,100220.25
2019-04-25T22:01:33.329Z,100213.98
2019-04-25T22:04:00.727Z,100217.30
2019-04-25T22:06:27.805Z,100215.00
2019-04-25T22:08:55.366Z,100213.18
2019-04-25T22:11:25.070Z,100206.23
2019-04-25T22:13:53.044Z,100209.23
2019-04-25T22:16:20.730Z,100202.39
2019-04-25T22:18:48.148Z,100203.34
2019-04-25T22:21:16.744Z,100197.27
2019-04-25T22:23:43.739Z,100200.73
2019-04-25T22:26:10.512Z,100199.30
2019-04-25T22:28:37.780Z,100198.34
2019-04-25T22:31:10.183Z,100199.77
2019-04-25T22:34:14.733Z,100192.32
2019-04-25T22:36:42.032Z,100131.03
2019-04-25T22:39:13.364Z,100195.06
2019-04-25T22:41:46.558Z,100196.67
2019-04-25T22:44:13.944Z,100196.00
2019-04-25T22:46:41.384Z,100189.29
2019-04-25T22:49:08.192Z,100189.37
2019-04-25T22:51:34.884Z,100186.58
2019-04-25T22:54:02.471Z,100186.59
2019-04-25T22:56:30.286Z,100186.12
2019-04-25T22:58:57.885Z,100181.59
2019-04-25T23:01:44.552Z,100178.50
2019-04-25T23:04:24.826Z,100182.64
2019-04-25T23:06:53.153Z,100174.84
2019-04-25T23:09:22.216Z,100178.20
2019-04-25T23:11:51.082Z,100174.12
2019-04-25T23:14:46.995Z,100171.23
2019-04-25T23:17:17.169Z,100169.69
2019-04-25T23:19:49.999Z,100173.58
2019-04-25T23:22:41.251Z,100173.08
2019-04-25T23:25:14.512Z,100165.86
2019-04-25T23:28:06.502Z,100167.97
2019-04-25T23:30:49.191Z,100161.86
2019-04-25T23:33:15.961Z,100164.99
2019-04-25T23:35:45.820Z,100160.39
2019-04-25T23:38:14.712Z,100160.12
2019-04-25T23:40:41.105Z,100158.16
2019-04-25T23:43:08.090Z,100164.37
2019-04-25T23:45:34.795Z,100162.58
2019-04-25T23:48:01.513Z,100169.77
2019-04-25T23:50:28.650Z,100166.98
2019-04-25T23:52:55.472Z,100163.84
2019-04-25T23:55:22.349Z,100157.75
2019-04-25T23:57:49.126Z,100155.91
